sensor_id;sensor_type;location;lat;lon;timestamp;temperature;humidity
23873;DHT22;42884;50.718;4.630;2022-08-19T00:02:24;18.90;99.90
23873;DHT22;42884;50.718;4.630;2022-08-19T00:04:50;18.90;99.90
23873;DHT22;42884;50.718;4.630;2022-08-19T00:07:18;18.90;99.90
23873;DHT22;42884;50.718;4.630;2022-08-19T00:09:43;18.80;99.90
23873;DHT22;42884;50.718;4.630;2022-08-19T00:12:09;18.80;99.90
23873;DHT22;42884;50.718;4.630;2022-08-19T00:14:35;18.80;99.90
23873;DHT22;42884;50.718;4.630;2022-08-19T00:17:02;18.70;99.90
23873;DHT22;42884;50.718;4.630;2022-08-19T00:19:28;18.80;99.90
23873;DHT22;42884;50.718;4.630;2022-08-19T00:21:54;18.70;99.90
23873;DHT22;42884;50.718;4.630;2022-08-19T00:24:21;18.70;99.90
23873;DHT22;42884;50.718;4.630;2022-08-19T00:26:47;18.70;99.90
23873;DHT22;42884;50.718;4.630;2022-08-19T00:29:13;18.60;99.90
23873;DHT22;42884;50.718;4.630;2022-08-19T00:31:39;18.60;99.90
23873;DHT22;42884;50.718;4.630;2022-08-19T00:34:05;18.60;99.90
23873;DHT22;42884;50.718;4.630;2022-08-19T00:36:31;18.60;99.90
23873;DHT22;42884;50.718;4.630;2022-08-19T00:38:58;18.50;99.90
23873;DHT22;42884;50.718;4.630;2022-08-19T00:41:24;18.50;99.90
23873;DHT22;42884;50.718;4.630;2022-08-19T00:44:07;18.50;99.90
23873;DHT22;42884;50.718;4.630;2022-08-19T00:46:34;18.50;99.90
23873;DHT22;42884;50.718;4.630;2022-08-19T00:49:02;18.50;99.90
23873;DHT22;42884;50.718;4.630;2022-08-19T00:51:31;18.40;99.90
23873;DHT22;42884;50.718;4.630;2022-08-19T00:53:57;18.40;99.90
23873;DHT22;42884;50.718;4.630;2022-08-19T00:56:23;18.40;99.90
23873;DHT22;42884;50.718;4.630;2022-08-19T00:58:52;18.40;99.90
23873;DHT22;42884;50.718;4.630;2022-08-19T01:01:18;18.40;99.90
23873;DHT22;42884;50.718;4.630;2022-08-19T01:03:44;18.40;99.90
23873;DHT22;42884;50.718;4.630;2022-08-19T01:06:09;18.40;99.90
23873;DHT22;42884;50.718;4.630;2022-08-19T01:08:35;18.30;99.90
23873;DHT22;42884;50.718;4.630;2022-08-19T01:11:01;18.30;99.90
23873;DHT22;42884;50.718;4.630;2022-08-19T01:13:27;18.30;99.90
23873;DHT22;42884;50.718;4.630;2022-08-19T01:15:57;18.30;99.90
23873;DHT22;42884;50.718;4.630;2022-08-19T01:18:24;18.30;99.90
23873;DHT22;42884;50.718;4.630;2022-08-19T01:20:52;18.30;99.90
23873;DHT22;42884;50.718;4.630;2022-08-19T01:23:19;18.20;99.90
23873;DHT22;42884;50.718;4.630;2022-08-19T01:25:48;18.20;99.90
23873;DHT22;42884;50.718;4.630;2022-08-19T01:28:20;18.20;99.90
23873;DHT22;42884;50.718;4.630;2022-08-19T01:30:46;18.10;99.90
23873;DHT22;42884;50.718;4.630;2022-08-19T01:33:12;18.20;99.90
23873;DHT22;42884;50.718;4.630;2022-08-19T01:35:38;18.10;99.90
23873;DHT22;42884;50.718;4.630;2022-08-19T01:38:07;18.10;99.90
23873;DHT22;42884;50.718;4.630;2022-08-19T01:40:34;18.10;99.90
23873;DHT22;42884;50.718;4.630;2022-08-19T01:43:00;18.00;99.90
23873;DHT22;42884;50.718;4.630;2022-08-19T01:45:26;18.10;99.90
23873;DHT22;42884;50.718;4.630;2022-08-19T01:47:52;18.00;99.90
23873;DHT22;42884;50.718;4.630;2022-08-19T01:50:18;18.00;99.90
23873;DHT22;42884;50.718;4.630;2022-08-19T01:52:44;18.00;99.90
23873;DHT22;42884;50.718;4.630;2022-08-19T01:55:11;18.00;99.90
23873;DHT22;42884;50.718;4.630;2022-08-19T01:57:37;17.90;99.90
23873;DHT22;42884;50.718;4.630;2022-08-19T02:00:05;17.90;99.90
23873;DHT22;42884;50.718;4.630;2022-08-19T02:02:31;17.90;99.90
23873;DHT22;42884;50.718;4.630;2022-08-19T02:04:57;17.90;99.90
23873;DHT22;42884;50.718;4.630;2022-08-19T02:07:22;17.90;99.90
23873;DHT22;42884;50.718;4.630;2022-08-19T02:09:48;17.80;99.90
23873;DHT22;42884;50.718;4.630;2022-08-19T02:12:14;17.80;99.90
23873;DHT22;42884;50.718;4.630;2022-08-19T02:14:39;17.80;99.90
23873;DHT22;42884;50.718;4.630;2022-08-19T02:17:05;17.70;99.90
23873;DHT22;42884;50.718;4.630;2022-08-19T02:19:30;17.70;99.90
23873;DHT22;42884;50.718;4.630;2022-08-19T02:21:58;17.70;99.90
23873;DHT22;42884;50.718;4.630;2022-08-19T02:24:24;17.70;99.90
23873;DHT22;42884;50.718;4.630;2022-08-19T02:26:49;17.70;99.90
23873;DHT22;42884;50.718;4.630;2022-08-19T02:29:15;17.70;99.90
23873;DHT22;42884;50.718;4.630;2022-08-19T02:31:40;17.60;99.90
23873;DHT22;42884;50.718;4.630;2022-08-19T02:34:06;17.60;99.90
23873;DHT22;42884;50.718;4.630;2022-08-19T02:36:32;17.50;99.90
23873;DHT22;42884;50.718;4.630;2022-08-19T02:38:57;17.50;99.90
23873;DHT22;42884;50.718;4.630;2022-08-19T02:41:24;17.50;99.90
23873;DHT22;42884;50.718;4.630;2022-08-19T02:43:50;17.50;99.90
23873;DHT22;42884;50.718;4.630;2022-08-19T02:48:53;17.50;99.90
23873;DHT22;42884;50.718;4.630;2022-08-19T02:51:20;17.40;99.90
23873;DHT22;42884;50.718;4.630;2022-08-19T02:53:46;17.40;99.90
23873;DHT22;42884;50.718;4.630;2022-08-19T02:56:12;17.40;99.90
23873;DHT22;42884;50.718;4.630;2022-08-19T02:58:37;17.30;99.90
23873;DHT22;42884;50.718;4.630;2022-08-19T03:01:03;17.30;99.90
23873;DHT22;42884;50.718;4.630;2022-08-19T03:03:28;17.30;99.90
23873;DHT22;42884;50.718;4.630;2022-08-19T03:06:04;17.20;99.90
23873;DHT22;42884;50.718;4.630;2022-08-19T03:08:30;17.20;99.90
23873;DHT22;42884;50.718;4.630;2022-08-19T03:10:56;17.30;99.90
23873;DHT22;42884;50.718;4.630;2022-08-19T03:13:21;17.20;99.90
23873;DHT22;42884;50.718;4.630;2022-08-19T03:15:48;17.20;99.90
23873;DHT22;42884;50.718;4.630;2022-08-19T03:18:14;17.20;99.90
23873;DHT22;42884;50.718;4.630;2022-08-19T03:20:49;17.20;99.90
23873;DHT22;42884;50.718;4.630;2022-08-19T03:23:16;17.20;99.90
23873;DHT22;42884;50.718;4.630;2022-08-19T03:25:42;17.10;99.90
23873;DHT22;42884;50.718;4.630;2022-08-19T03:28:09;17.10;99.90
23873;DHT22;42884;50.718;4.630;2022-08-19T03:30:35;17.20;99.90
23873;DHT22;42884;50.718;4.630;2022-08-19T03:33:00;17.20;99.90
23873;DHT22;42884;50.718;4.630;2022-08-19T03:35:27;17.20;99.90
23873;DHT22;42884;50.718;4.630;2022-08-19T03:37:52;17.10;99.90
23873;DHT22;42884;50.718;4.630;2022-08-19T03:40:18;17.10;99.90
23873;DHT22;42884;50.718;4.630;2022-08-19T03:42:44;17.10;99.90
23873;DHT22;42884;50.718;4.630;2022-08-19T03:45:11;17.10;99.90
23873;DHT22;42884;50.718;4.630;2022-08-19T03:47:37;17.00;99.90
23873;DHT22;42884;50.718;4.630;2022-08-19T03:50:03;17.00;99.90
23873;DHT22;42884;50.718;4.630;2022-08-19T03:52:28;17.00;99.90
23873;DHT22;42884;50.718;4.630;2022-08-19T03:54:54;17.00;99.90
23873;DHT22;42884;50.718;4.630;2022-08-19T03:57:20;17.00;99.90
23873;DHT22;42884;50.718;4.630;2022-08-19T03:59:45;17.00;99.90
23873;DHT22;42884;50.718;4.630;2022-08-19T04:02:11;17.00;99.90
23873;DHT22;42884;50.718;4.630;2022-08-19T04:04:41;16.90;99.90
23873;DHT22;42884;50.718;4.630;2022-08-19T04:07:08;17.00;99.90
23873;DHT22;42884;50.718;4.630;2022-08-19T04:09:35;16.90;99.90
23873;DHT22;42884;50.718;4.630;2022-08-19T04:12:02;16.90;99.90
23873;DHT22;42884;50.718;4.630;2022-08-19T04:14:32;16.90;99.90
23873;DHT22;42884;50.718;4.630;2022-08-19T04:16:59;16.90;99.90
23873;DHT22;42884;50.718;4.630;2022-08-19T04:19:25;16.80;99.90
23873;DHT22;42884;50.718;4.630;2022-08-19T04:21:51;16.80;99.90
23873;DHT22;42884;50.718;4.630;2022-08-19T04:24:18;16.80;99.90
23873;DHT22;42884;50.718;4.630;2022-08-19T04:26:44;16.80;99.90
23873;DHT22;42884;50.718;4.630;2022-08-19T04:29:11;16.80;99.90
23873;DHT22;42884;50.718;4.630;2022-08-19T04:31:36;16.80;99.90
23873;DHT22;42884;50.718;4.630;2022-08-19T04:34:04;16.80;99.90
23873;DHT22;42884;50.718;4.630;2022-08-19T04:36:30;16.80;99.90
23873;DHT22;42884;50.718;4.630;2022-08-19T04:38:58;16.80;99.90
23873;DHT22;42884;50.718;4.630;2022-08-19T04:41:24;16.80;99.90
23873;DHT22;42884;50.718;4.630;2022-08-19T04:44:08;16.80;99.90
23873;DHT22;42884;50.718;4.630;2022-08-19T04:46:34;16.90;99.90
23873;DHT22;42884;50.718;4.630;2022-08-19T04:49:00;16.90;99.90
23873;DHT22;42884;50.718;4.630;2022-08-19T04:51:26;17.00;99.90
23873;DHT22;42884;50.718;4.630;2022-08-19T04:53:51;17.00;99.90
23873;DHT22;42884;50.718;4.630;2022-08-19T04:56:18;17.10;99.90
23873;DHT22;42884;50.718;4.630;2022-08-19T04:58:47;17.10;99.90
23873;DHT22;42884;50.718;4.630;2022-08-19T05:01:23;17.10;99.90
23873;DHT22;42884;50.718;4.630;2022-08-19T05:03:49;17.20;99.90
23873;DHT22;42884;50.718;4.630;2022-08-19T05:06:15;17.30;99.90
23873;DHT22;42884;50.718;4.630;2022-08-19T05:08:41;17.40;99.90
23873;DHT22;42884;50.718;4.630;2022-08-19T05:11:11;17.40;99.90
23873;DHT22;42884;50.718;4.630;2022-08-19T05:13:37;17.50;99.90
23873;DHT22;42884;50.718;4.630;2022-08-19T05:16:03;17.40;99.90
23873;DHT22;42884;50.718;4.630;2022-08-19T05:18:29;17.50;99.90
23873;DHT22;42884;50.718;4.630;2022-08-19T05:21:14;17.60;99.90
23873;DHT22;42884;50.718;4.630;2022-08-19T05:23:58;17.70;99.90
23873;DHT22;42884;50.718;4.630;2022-08-19T05:26:24;17.70;99.90
23873;DHT22;42884;50.718;4.630;2022-08-19T05:28:53;17.80;99.90
23873;DHT22;42884;50.718;4.630;2022-08-19T05:31:19;17.80;99.90
23873;DHT22;42884;50.718;4.630;2022-08-19T05:33:44;17.80;99.90
23873;DHT22;42884;50.718;4.630;2022-08-19T05:36:10;17.80;99.90
23873;DHT22;42884;50.718;4.630;2022-08-19T05:38:36;17.80;99.90
23873;DHT22;42884;50.718;4.630;2022-08-19T05:41:08;17.80;99.90
23873;DHT22;42884;50.718;4.630;2022-08-19T05:43:34;17.90;99.90
23873;DHT22;42884;50.718;4.630;2022-08-19T05:46:00;17.90;99.90
23873;DHT22;42884;50.718;4.630;2022-08-19T05:48:25;17.90;99.90
23873;DHT22;42884;50.718;4.630;2022-08-19T05:50:51;17.90;99.90
23873;DHT22;42884;50.718;4.630;2022-08-19T05:53:17;18.00;99.90
23873;DHT22;42884;50.718;4.630;2022-08-19T05:55:43;18.00;99.90
23873;DHT22;42884;50.718;4.630;2022-08-19T05:58:08;18.10;99.90
23873;DHT22;42884;50.718;4.630;2022-08-19T06:00:35;18.10;99.90
23873;DHT22;42884;50.718;4.630;2022-08-19T06:03:01;18.20;99.90
23873;DHT22;42884;50.718;4.630;2022-08-19T06:05:29;18.20;99.90
23873;DHT22;42884;50.718;4.630;2022-08-19T06:07:55;18.10;99.90
23873;DHT22;42884;50.718;4.630;2022-08-19T06:10:21;18.30;99.90
23873;DHT22;42884;50.718;4.630;2022-08-19T06:12:47;18.30;99.90
23873;DHT22;42884;50.718;4.630;2022-08-19T06:15:13;18.40;99.90
23873;DHT22;42884;50.718;4.630;2022-08-19T06:17:40;18.50;99.90
23873;DHT22;42884;50.718;4.630;2022-08-19T06:20:09;18.60;99.90
23873;DHT22;42884;50.718;4.630;2022-08-19T06:22:37;18.70;99.90
23873;DHT22;42884;50.718;4.630;2022-08-19T06:25:03;18.80;99.90
23873;DHT22;42884;50.718;4.630;2022-08-19T06:27:29;18.80;99.90
23873;DHT22;42884;50.718;4.630;2022-08-19T06:29:56;18.90;99.90
23873;DHT22;42884;50.718;4.630;2022-08-19T06:32:21;19.10;99.90
23873;DHT22;42884;50.718;4.630;2022-08-19T06:34:47;19.10;99.90
23873;DHT22;42884;50.718;4.630;2022-08-19T06:37:12;19.10;99.90
23873;DHT22;42884;50.718;4.630;2022-08-19T06:39:39;19.20;99.90
23873;DHT22;42884;50.718;4.630;2022-08-19T06:42:05;19.20;99.90
23873;DHT22;42884;50.718;4.630;2022-08-19T06:44:33;19.40;99.90
23873;DHT22;42884;50.718;4.630;2022-08-19T06:47:00;19.50;99.90
23873;DHT22;42884;50.718;4.630;2022-08-19T06:49:27;19.70;99.90
23873;DHT22;42884;50.718;4.630;2022-08-19T06:51:56;19.90;99.90
23873;DHT22;42884;50.718;4.630;2022-08-19T06:54:22;20.00;99.90
23873;DHT22;42884;50.718;4.630;2022-08-19T06:56:48;20.00;99.90
23873;DHT22;42884;50.718;4.630;2022-08-19T06:59:15;19.90;99.90
23873;DHT22;42884;50.718;4.630;2022-08-19T07:01:43;19.90;99.90
23873;DHT22;42884;50.718;4.630;2022-08-19T07:04:11;20.10;99.90
23873;DHT22;42884;50.718;4.630;2022-08-19T07:06:36;20.20;99.90
23873;DHT22;42884;50.718;4.630;2022-08-19T07:09:03;20.30;99.90
23873;DHT22;42884;50.718;4.630;2022-08-19T07:11:28;20.10;99.90
23873;DHT22;42884;50.718;4.630;2022-08-19T07:13:54;20.20;99.90
23873;DHT22;42884;50.718;4.630;2022-08-19T07:16:20;20.40;99.90
23873;DHT22;42884;50.718;4.630;2022-08-19T07:18:46;20.50;99.90
23873;DHT22;42884;50.718;4.630;2022-08-19T07:21:18;20.50;99.90
23873;DHT22;42884;50.718;4.630;2022-08-19T07:23:45;20.50;99.90
23873;DHT22;42884;50.718;4.630;2022-08-19T07:28:36;20.80;99.90
23873;DHT22;42884;50.718;4.630;2022-08-19T07:31:07;20.80;99.90
23873;DHT22;42884;50.718;4.630;2022-08-19T07:33:33;20.80;99.90
23873;DHT22;42884;50.718;4.630;2022-08-19T07:36:05;21.00;99.90
23873;DHT22;42884;50.718;4.630;2022-08-19T07:38:31;21.20;99.90
23873;DHT22;42884;50.718;4.630;2022-08-19T07:40:57;21.20;99.90
23873;DHT22;42884;50.718;4.630;2022-08-19T07:43:23;21.20;99.90
23873;DHT22;42884;50.718;4.630;2022-08-19T07:45:53;21.40;99.90
23873;DHT22;42884;50.718;4.630;2022-08-19T07:48:30;21.70;99.90
23873;DHT22;42884;50.718;4.630;2022-08-19T07:50:57;22.10;99.90
23873;DHT22;42884;50.718;4.630;2022-08-19T07:53:25;22.20;99.90
23873;DHT22;42884;50.718;4.630;2022-08-19T07:55:52;22.30;99.90
23873;DHT22;42884;50.718;4.630;2022-08-19T07:58:20;22.20;99.90
23873;DHT22;42884;50.718;4.630;2022-08-19T08:00:47;22.30;99.90
23873;DHT22;42884;50.718;4.630;2022-08-19T08:03:14;22.30;99.90
23873;DHT22;42884;50.718;4.630;2022-08-19T08:05:40;22.20;99.90
23873;DHT22;42884;50.718;4.630;2022-08-19T08:08:25;22.30;99.90
23873;DHT22;42884;50.718;4.630;2022-08-19T08:10:56;22.10;99.90
23873;DHT22;42884;50.718;4.630;2022-08-19T08:13:22;22.20;99.90
23873;DHT22;42884;50.718;4.630;2022-08-19T08:15:48;22.60;99.90
23873;DHT22;42884;50.718;4.630;2022-08-19T08:18:14;22.90;99.90
23873;DHT22;42884;50.718;4.630;2022-08-19T08:20:40;22.90;99.90
23873;DHT22;42884;50.718;4.630;2022-08-19T08:23:06;23.10;99.90
23873;DHT22;42884;50.718;4.630;2022-08-19T08:25:54;23.20;99.90
23873;DHT22;42884;50.718;4.630;2022-08-19T08:28:20;23.30;99.90
23873;DHT22;42884;50.718;4.630;2022-08-19T08:30:46;23.40;99.90
23873;DHT22;42884;50.718;4.630;2022-08-19T08:33:13;23.50;99.90
23873;DHT22;42884;50.718;4.630;2022-08-19T08:35:39;23.60;99.90
23873;DHT22;42884;50.718;4.630;2022-08-19T08:38:06;23.80;99.90
23873;DHT22;42884;50.718;4.630;2022-08-19T08:40:42;23.70;99.90
23873;DHT22;42884;50.718;4.630;2022-08-19T08:45:35;23.40;99.90
23873;DHT22;42884;50.718;4.630;2022-08-19T08:48:02;23.70;99.90
23873;DHT22;42884;50.718;4.630;2022-08-19T08:50:32;23.90;99.90
23873;DHT22;42884;50.718;4.630;2022-08-19T08:53:01;24.10;99.90
23873;DHT22;42884;50.718;4.630;2022-08-19T08:55:27;24.60;99.90
23873;DHT22;42884;50.718;4.630;2022-08-19T09:00:36;24.70;99.90
23873;DHT22;42884;50.718;4.630;2022-08-19T09:03:03;24.20;99.90
23873;DHT22;42884;50.718;4.630;2022-08-19T09:10:38;24.70;99.90
23873;DHT22;42884;50.718;4.630;2022-08-19T09:13:28;24.40;99.90
23873;DHT22;42884;50.718;4.630;2022-08-19T09:15:53;24.40;99.90
23873;DHT22;42884;50.718;4.630;2022-08-19T09:18:19;24.30;99.90
23873;DHT22;42884;50.718;4.630;2022-08-19T09:20:45;24.40;99.90
23873;DHT22;42884;50.718;4.630;2022-08-19T09:23:12;24.40;99.90
23873;DHT22;42884;50.718;4.630;2022-08-19T09:25:38;24.50;99.90
23873;DHT22;42884;50.718;4.630;2022-08-19T09:28:05;24.20;99.90
23873;DHT22;42884;50.718;4.630;2022-08-19T09:30:32;24.40;99.90
23873;DHT22;42884;50.718;4.630;2022-08-19T09:32:58;24.60;99.90
23873;DHT22;42884;50.718;4.630;2022-08-19T09:35:25;24.30;99.90
23873;DHT22;42884;50.718;4.630;2022-08-19T09:37:51;24.40;99.90
23873;DHT22;42884;50.718;4.630;2022-08-19T09:40:18;24.30;99.90
23873;DHT22;42884;50.718;4.630;2022-08-19T09:42:44;24.30;99.90
23873;DHT22;42884;50.718;4.630;2022-08-19T09:45:11;24.30;99.90
23873;DHT22;42884;50.718;4.630;2022-08-19T09:47:37;24.40;99.90
23873;DHT22;42884;50.718;4.630;2022-08-19T09:50:04;24.50;99.90
23873;DHT22;42884;50.718;4.630;2022-08-19T09:52:30;24.60;99.90
23873;DHT22;42884;50.718;4.630;2022-08-19T09:54:56;24.60;99.90
23873;DHT22;42884;50.718;4.630;2022-08-19T09:57:21;24.40;99.90
23873;DHT22;42884;50.718;4.630;2022-08-19T09:59:47;24.30;99.90
23873;DHT22;42884;50.718;4.630;2022-08-19T10:02:13;24.30;99.90
23873;DHT22;42884;50.718;4.630;2022-08-19T10:04:39;24.30;99.90
23873;DHT22;42884;50.718;4.630;2022-08-19T10:07:23;24.20;99.90
23873;DHT22;42884;50.718;4.630;2022-08-19T10:09:48;24.20;99.90
23873;DHT22;42884;50.718;4.630;2022-08-19T10:12:14;24.20;99.90
23873;DHT22;42884;50.718;4.630;2022-08-19T10:14:40;24.20;99.90
23873;DHT22;42884;50.718;4.630;2022-08-19T10:17:06;23.90;99.90
23873;DHT22;42884;50.718;4.630;2022-08-19T10:19:31;23.80;99.90
23873;DHT22;42884;50.718;4.630;2022-08-19T10:22:04;23.70;99.90
23873;DHT22;42884;50.718;4.630;2022-08-19T10:24:31;23.80;99.90
23873;DHT22;42884;50.718;4.630;2022-08-19T10:26:56;23.60;99.90
23873;DHT22;42884;50.718;4.630;2022-08-19T10:29:22;23.80;99.90
23873;DHT22;42884;50.718;4.630;2022-08-19T10:31:47;24.00;99.90
23873;DHT22;42884;50.718;4.630;2022-08-19T10:34:13;23.90;99.90
23873;DHT22;42884;50.718;4.630;2022-08-19T10:36:39;23.90;99.90
23873;DHT22;42884;50.718;4.630;2022-08-19T10:39:08;24.10;99.90
23873;DHT22;42884;50.718;4.630;2022-08-19T10:41:35;23.90;99.90
23873;DHT22;42884;50.718;4.630;2022-08-19T10:44:08;23.90;99.90
23873;DHT22;42884;50.718;4.630;2022-08-19T10:46:35;23.70;99.90
23873;DHT22;42884;50.718;4.630;2022-08-19T10:49:01;23.80;99.90
23873;DHT22;42884;50.718;4.630;2022-08-19T10:51:27;23.70;99.90
23873;DHT22;42884;50.718;4.630;2022-08-19T10:54:12;23.80;99.90
23873;DHT22;42884;50.718;4.630;2022-08-19T10:56:37;23.90;99.90
23873;DHT22;42884;50.718;4.630;2022-08-19T10:59:20;24.10;99.90
23873;DHT22;42884;50.718;4.630;2022-08-19T11:01:46;24.10;99.90
23873;DHT22;42884;50.718;4.630;2022-08-19T11:04:13;24.30;99.90
23873;DHT22;42884;50.718;4.630;2022-08-19T11:06:41;24.40;99.90
23873;DHT22;42884;50.718;4.630;2022-08-19T11:09:08;24.60;99.90
23873;DHT22;42884;50.718;4.630;2022-08-19T11:11:34;24.70;99.90
23873;DHT22;42884;50.718;4.630;2022-08-19T11:14:06;24.70;99.90
23873;DHT22;42884;50.718;4.630;2022-08-19T11:16:32;24.80;99.90
23873;DHT22;42884;50.718;4.630;2022-08-19T11:18:58;24.70;99.90
23873;DHT22;42884;50.718;4.630;2022-08-19T11:23:51;24.30;99.90
23873;DHT22;42884;50.718;4.630;2022-08-19T11:26:17;24.20;99.90
23873;DHT22;42884;50.718;4.630;2022-08-19T11:28:43;24.10;99.90
23873;DHT22;42884;50.718;4.630;2022-08-19T11:31:16;24.20;99.90
23873;DHT22;42884;50.718;4.630;2022-08-19T11:33:42;24.20;99.90
23873;DHT22;42884;50.718;4.630;2022-08-19T11:36:08;24.10;99.90
23873;DHT22;42884;50.718;4.630;2022-08-19T11:38:34;23.80;99.90
23873;DHT22;42884;50.718;4.630;2022-08-19T11:41:02;23.90;99.90
23873;DHT22;42884;50.718;4.630;2022-08-19T11:43:27;24.00;99.90
23873;DHT22;42884;50.718;4.630;2022-08-19T11:45:54;24.20;99.90
23873;DHT22;42884;50.718;4.630;2022-08-19T11:48:20;24.20;99.90
23873;DHT22;42884;50.718;4.630;2022-08-19T11:50:49;24.40;99.90
23873;DHT22;42884;50.718;4.630;2022-08-19T11:53:15;24.10;99.90
23873;DHT22;42884;50.718;4.630;2022-08-19T11:55:41;24.10;99.90
23873;DHT22;42884;50.718;4.630;2022-08-19T11:58:08;24.10;99.90
23873;DHT22;42884;50.718;4.630;2022-08-19T12:00:34;24.10;99.90
23873;DHT22;42884;50.718;4.630;2022-08-19T12:03:00;24.00;99.90
23873;DHT22;42884;50.718;4.630;2022-08-19T12:05:26;24.10;99.90
23873;DHT22;42884;50.718;4.630;2022-08-19T12:07:51;24.30;99.90
23873;DHT22;42884;50.718;4.630;2022-08-19T12:10:17;24.40;99.90
23873;DHT22;42884;50.718;4.630;2022-08-19T12:12:43;24.60;99.90
23873;DHT22;42884;50.718;4.630;2022-08-19T12:15:10;24.50;99.90
23873;DHT22;42884;50.718;4.630;2022-08-19T12:17:37;24.70;99.90
23873;DHT22;42884;50.718;4.630;2022-08-19T12:20:03;24.90;99.90
23873;DHT22;42884;50.718;4.630;2022-08-19T12:22:29;25.10;99.90
23873;DHT22;42884;50.718;4.630;2022-08-19T12:24:55;25.20;99.90
23873;DHT22;42884;50.718;4.630;2022-08-19T12:27:21;25.60;99.90
23873;DHT22;42884;50.718;4.630;2022-08-19T12:29:46;25.90;99.90
23873;DHT22;42884;50.718;4.630;2022-08-19T12:32:12;26.00;99.90
23873;DHT22;42884;50.718;4.630;2022-08-19T12:34:37;26.00;99.90
23873;DHT22;42884;50.718;4.630;2022-08-19T12:37:04;26.00;99.90
23873;DHT22;42884;50.718;4.630;2022-08-19T12:39:30;25.90;99.90
23873;DHT22;42884;50.718;4.630;2022-08-19T12:41:58;26.20;99.90
23873;DHT22;42884;50.718;4.630;2022-08-19T12:44:24;26.30;99.90
23873;DHT22;42884;50.718;4.630;2022-08-19T12:46:50;26.40;99.90
23873;DHT22;42884;50.718;4.630;2022-08-19T12:49:15;26.40;99.90
23873;DHT22;42884;50.718;4.630;2022-08-19T12:51:42;26.40;99.90
23873;DHT22;42884;50.718;4.630;2022-08-19T12:54:08;26.40;99.90
23873;DHT22;42884;50.718;4.630;2022-08-19T12:56:33;26.60;99.90
23873;DHT22;42884;50.718;4.630;2022-08-19T12:59:02;26.70;99.90
23873;DHT22;42884;50.718;4.630;2022-08-19T13:01:28;27.00;99.90
23873;DHT22;42884;50.718;4.630;2022-08-19T13:03:55;27.50;99.90
23873;DHT22;42884;50.718;4.630;2022-08-19T13:06:20;27.70;99.90
23873;DHT22;42884;50.718;4.630;2022-08-19T13:08:46;28.20;99.90
23873;DHT22;42884;50.718;4.630;2022-08-19T13:11:13;28.80;99.90
23873;DHT22;42884;50.718;4.630;2022-08-19T13:13:43;29.00;99.90
23873;DHT22;42884;50.718;4.630;2022-08-19T13:16:09;28.90;99.90
23873;DHT22;42884;50.718;4.630;2022-08-19T13:18:36;28.90;99.90
23873;DHT22;42884;50.718;4.630;2022-08-19T13:21:03;29.20;99.90
23873;DHT22;42884;50.718;4.630;2022-08-19T13:23:29;29.30;99.90
23873;DHT22;42884;50.718;4.630;2022-08-19T13:25:59;29.00;99.90
23873;DHT22;42884;50.718;4.630;2022-08-19T13:28:25;29.00;99.90
23873;DHT22;42884;50.718;4.630;2022-08-19T13:30:51;28.70;99.90
23873;DHT22;42884;50.718;4.630;2022-08-19T13:33:35;29.10;99.90
23873;DHT22;42884;50.718;4.630;2022-08-19T13:36:00;29.40;99.90
23873;DHT22;42884;50.718;4.630;2022-08-19T13:38:27;29.50;99.90
23873;DHT22;42884;50.718;4.630;2022-08-19T13:40:53;29.50;99.90
23873;DHT22;42884;50.718;4.630;2022-08-19T13:43:20;29.00;99.90
23873;DHT22;42884;50.718;4.630;2022-08-19T13:45:47;28.70;99.90
23873;DHT22;42884;50.718;4.630;2022-08-19T13:48:13;28.70;99.90
23873;DHT22;42884;50.718;4.630;2022-08-19T13:50:43;28.60;99.90
23873;DHT22;42884;50.718;4.630;2022-08-19T13:53:10;28.60;99.90
23873;DHT22;42884;50.718;4.630;2022-08-19T13:55:42;28.70;99.90
23873;DHT22;42884;50.718;4.630;2022-08-19T13:58:08;28.60;99.90
23873;DHT22;42884;50.718;4.630;2022-08-19T14:00:37;28.20;99.90
23873;DHT22;42884;50.718;4.630;2022-08-19T14:03:03;28.20;99.90
23873;DHT22;42884;50.718;4.630;2022-08-19T14:05:29;28.40;99.90
23873;DHT22;42884;50.718;4.630;2022-08-19T14:07:55;28.40;99.90
23873;DHT22;42884;50.718;4.630;2022-08-19T14:10:21;28.10;99.90
23873;DHT22;42884;50.718;4.630;2022-08-19T14:12:48;28.10;99.90
23873;DHT22;42884;50.718;4.630;2022-08-19T14:15:14;28.10;99.90
23873;DHT22;42884;50.718;4.630;2022-08-19T14:17:40;27.90;99.90
23873;DHT22;42884;50.718;4.630;2022-08-19T14:20:07;27.70;99.90
23873;DHT22;42884;50.718;4.630;2022-08-19T14:22:35;27.30;99.90
23873;DHT22;42884;50.718;4.630;2022-08-19T14:25:01;27.30;99.90
23873;DHT22;42884;50.718;4.630;2022-08-19T14:27:26;27.30;99.90
23873;DHT22;42884;50.718;4.630;2022-08-19T14:29:52;27.50;99.90
23873;DHT22;42884;50.718;4.630;2022-08-19T14:32:18;27.80;99.90
23873;DHT22;42884;50.718;4.630;2022-08-19T14:34:43;27.60;99.90
23873;DHT22;42884;50.718;4.630;2022-08-19T14:37:11;27.40;99.90
23873;DHT22;42884;50.718;4.630;2022-08-19T14:39:37;27.20;99.90
23873;DHT22;42884;50.718;4.630;2022-08-19T14:42:06;27.00;99.90
23873;DHT22;42884;50.718;4.630;2022-08-19T14:44:33;27.00;99.90
23873;DHT22;42884;50.718;4.630;2022-08-19T14:46:59;26.60;99.90
23873;DHT22;42884;50.718;4.630;2022-08-19T14:49:25;26.30;99.90
23873;DHT22;42884;50.718;4.630;2022-08-19T14:51:50;26.20;99.90
23873;DHT22;42884;50.718;4.630;2022-08-19T14:54:16;25.90;99.90
23873;DHT22;42884;50.718;4.630;2022-08-19T14:56:41;25.70;99.90
23873;DHT22;42884;50.718;4.630;2022-08-19T14:59:07;25.50;99.90
23873;DHT22;42884;50.718;4.630;2022-08-19T15:01:32;25.30;99.90
23873;DHT22;42884;50.718;4.630;2022-08-19T15:03:58;25.20;99.90
23873;DHT22;42884;50.718;4.630;2022-08-19T15:06:24;25.10;99.90
23873;DHT22;42884;50.718;4.630;2022-08-19T15:08:50;24.90;99.90
23873;DHT22;42884;50.718;4.630;2022-08-19T15:11:17;24.90;99.90
23873;DHT22;42884;50.718;4.630;2022-08-19T15:13:46;24.70;99.90
23873;DHT22;42884;50.718;4.630;2022-08-19T15:16:12;24.40;99.90
23873;DHT22;42884;50.718;4.630;2022-08-19T15:18:40;24.30;99.90
23873;DHT22;42884;50.718;4.630;2022-08-19T15:21:09;24.60;99.90
23873;DHT22;42884;50.718;4.630;2022-08-19T15:23:35;24.90;99.90
23873;DHT22;42884;50.718;4.630;2022-08-19T15:26:01;25.50;99.90
23873;DHT22;42884;50.718;4.630;2022-08-19T15:28:27;25.90;99.90
23873;DHT22;42884;50.718;4.630;2022-08-19T15:30:53;26.10;99.90
23873;DHT22;42884;50.718;4.630;2022-08-19T15:33:18;26.00;99.90
23873;DHT22;42884;50.718;4.630;2022-08-19T15:35:45;26.30;99.90
23873;DHT22;42884;50.718;4.630;2022-08-19T15:38:12;26.40;99.90
23873;DHT22;42884;50.718;4.630;2022-08-19T15:40:38;26.50;99.90
23873;DHT22;42884;50.718;4.630;2022-08-19T15:43:04;26.70;99.90
23873;DHT22;42884;50.718;4.630;2022-08-19T15:45:30;26.80;99.90
23873;DHT22;42884;50.718;4.630;2022-08-19T15:47:59;27.00;99.90